sensor_id;sensor_type;location;lat;lon;timestamp;P1;durP1;ratioP1;P2;durP2;ratioP2
74342;SDS011;62767;50.300;8.070;2024-03-02T00:01:56;1.65;;;1.17;;
74342;SDS011;62767;50.300;8.070;2024-03-02T00:04:22;1.88;;;1.10;;
74342;SDS011;62767;50.300;8.070;2024-03-02T00:06:47;1.92;;;1.00;;
74342;SDS011;62767;50.300;8.070;2024-03-02T00:09:12;1.55;;;0.90;;
74342;SDS011;62767;50.300;8.070;2024-03-02T00:11:40;1.63;;;1.00;;
74342;SDS011;62767;50.300;8.070;2024-03-02T00:14:05;2.15;;;1.10;;
74342;SDS011;62767;50.300;8.070;2024-03-02T00:16:31;1.92;;;0.95;;
74342;SDS011;62767;50.300;8.070;2024-03-02T00:19:03;1.98;;;0.95;;
74342;SDS011;62767;50.300;8.070;2024-03-02T00:21:31;1.67;;;0.90;;
74342;SDS011;62767;50.300;8.070;2024-03-02T00:23:57;2.55;;;0.93;;
74342;SDS011;62767;50.300;8.070;2024-03-02T00:26:23;3.13;;;0.90;;
74342;SDS011;62767;50.300;8.070;2024-03-02T00:28:49;2.17;;;0.93;;
74342;SDS011;62767;50.300;8.070;2024-03-02T00:31:15;1.42;;;0.90;;
74342;SDS011;62767;50.300;8.070;2024-03-02T00:33:48;1.05;;;0.80;;
74342;SDS011;62767;50.300;8.070;2024-03-02T00:36:26;1.73;;;0.90;;
74342;SDS011;62767;50.300;8.070;2024-03-02T00:38:53;1.77;;;1.00;;
74342;SDS011;62767;50.300;8.070;2024-03-02T00:41:32;1.80;;;0.90;;
74342;SDS011;62767;50.300;8.070;2024-03-02T00:44:06;1.70;;;1.00;;
74342;SDS011;62767;50.300;8.070;2024-03-02T00:49:01;1.30;;;0.90;;
74342;SDS011;62767;50.300;8.070;2024-03-02T00:51:48;1.58;;;0.95;;
74342;SDS011;62767;50.300;8.070;2024-03-02T00:54:15;2.28;;;1.00;;
74342;SDS011;62767;50.300;8.070;2024-03-02T00:56:45;1.02;;;0.80;;
74342;SDS011;62767;50.300;8.070;2024-03-02T00:59:12;1.48;;;0.85;;
74342;SDS011;62767;50.300;8.070;2024-03-02T01:01:38;1.50;;;0.90;;
74342;SDS011;62767;50.300;8.070;2024-03-02T01:04:03;2.40;;;1.10;;
74342;SDS011;62767;50.300;8.070;2024-03-02T01:06:30;1.83;;;1.08;;
74342;SDS011;62767;50.300;8.070;2024-03-02T01:08:55;1.10;;;0.82;;
74342;SDS011;62767;50.300;8.070;2024-03-02T01:11:21;1.25;;;0.80;;
74342;SDS011;62767;50.300;8.070;2024-03-02T01:13:50;1.52;;;0.90;;
74342;SDS011;62767;50.300;8.070;2024-03-02T01:16:16;0.90;;;0.70;;
74342;SDS011;62767;50.300;8.070;2024-03-02T01:18:41;1.55;;;0.90;;
74342;SDS011;62767;50.300;8.070;2024-03-02T01:21:07;1.27;;;0.88;;
74342;SDS011;62767;50.300;8.070;2024-03-02T01:23:33;1.55;;;0.90;;
74342;SDS011;62767;50.300;8.070;2024-03-02T01:25:59;2.03;;;1.02;;
74342;SDS011;62767;50.300;8.070;2024-03-02T01:28:24;2.78;;;1.00;;
74342;SDS011;62767;50.300;8.070;2024-03-02T01:30:49;2.90;;;0.90;;
74342;SDS011;62767;50.300;8.070;2024-03-02T01:33:16;1.80;;;0.95;;
74342;SDS011;62767;50.300;8.070;2024-03-02T01:35:43;1.88;;;1.17;;
74342;SDS011;62767;50.300;8.070;2024-03-02T01:38:09;1.42;;;0.80;;
74342;SDS011;62767;50.300;8.070;2024-03-02T01:40:34;1.90;;;1.10;;
74342;SDS011;62767;50.300;8.070;2024-03-02T01:43:00;1.42;;;0.93;;
74342;SDS011;62767;50.300;8.070;2024-03-02T01:45:27;1.00;;;0.80;;
74342;SDS011;62767;50.300;8.070;2024-03-02T01:47:53;1.48;;;0.85;;
74342;SDS011;62767;50.300;8.070;2024-03-02T01:50:25;0.80;;;0.77;;
74342;SDS011;62767;50.300;8.070;2024-03-02T01:52:56;1.10;;;0.85;;
74342;SDS011;62767;50.300;8.070;2024-03-02T01:55:22;2.03;;;1.10;;
74342;SDS011;62767;50.300;8.070;2024-03-02T01:57:48;1.80;;;0.90;;
74342;SDS011;62767;50.300;8.070;2024-03-02T02:00:18;2.13;;;1.17;;
74342;SDS011;62767;50.300;8.070;2024-03-02T02:02:44;2.17;;;1.08;;
74342;SDS011;62767;50.300;8.070;2024-03-02T02:05:10;1.83;;;1.00;;
74342;SDS011;62767;50.300;8.070;2024-03-02T02:07:36;2.00;;;0.95;;
74342;SDS011;62767;50.300;8.070;2024-03-02T02:10:02;1.70;;;1.20;;
74342;SDS011;62767;50.300;8.070;2024-03-02T02:12:27;2.05;;;0.98;;
74342;SDS011;62767;50.300;8.070;2024-03-02T02:14:53;1.38;;;0.88;;
74342;SDS011;62767;50.300;8.070;2024-03-02T02:17:18;2.40;;;1.10;;
74342;SDS011;62767;50.300;8.070;2024-03-02T02:19:44;1.65;;;1.00;;
74342;SDS011;62767;50.300;8.070;2024-03-02T02:22:10;2.20;;;1.00;;
74342;SDS011;62767;50.300;8.070;2024-03-02T02:24:36;3.00;;;0.98;;
74342;SDS011;62767;50.300;8.070;2024-03-02T02:27:05;2.53;;;1.10;;
74342;SDS011;62767;50.300;8.070;2024-03-02T02:29:30;1.10;;;0.90;;
74342;SDS011;62767;50.300;8.070;2024-03-02T02:31:56;1.50;;;0.98;;
74342;SDS011;62767;50.300;8.070;2024-03-02T02:34:21;2.15;;;1.20;;
74342;SDS011;62767;50.300;8.070;2024-03-02T02:36:47;1.70;;;1.02;;
74342;SDS011;62767;50.300;8.070;2024-03-02T02:39:13;1.75;;;0.90;;
74342;SDS011;62767;50.300;8.070;2024-03-02T02:41:42;1.95;;;1.17;;
74342;SDS011;62767;50.300;8.070;2024-03-02T02:44:07;2.00;;;0.90;;
74342;SDS011;62767;50.300;8.070;2024-03-02T02:46:33;1.75;;;1.17;;
74342;SDS011;62767;50.300;8.070;2024-03-02T02:48:58;1.40;;;1.00;;
74342;SDS011;62767;50.300;8.070;2024-03-02T02:51:24;1.35;;;0.82;;
74342;SDS011;62767;50.300;8.070;2024-03-02T02:53:50;2.08;;;1.10;;
74342;SDS011;62767;50.300;8.070;2024-03-02T02:56:16;1.02;;;0.70;;
74342;SDS011;62767;50.300;8.070;2024-03-02T02:58:42;1.50;;;0.80;;
74342;SDS011;62767;50.300;8.070;2024-03-02T03:01:07;1.65;;;1.00;;
74342;SDS011;62767;50.300;8.070;2024-03-02T03:03:33;1.60;;;0.90;;
74342;SDS011;62767;50.300;8.070;2024-03-02T03:05:59;1.35;;;0.80;;
74342;SDS011;62767;50.300;8.070;2024-03-02T03:08:24;2.03;;;0.93;;
74342;SDS011;62767;50.300;8.070;2024-03-02T03:10:50;1.77;;;0.93;;
74342;SDS011;62767;50.300;8.070;2024-03-02T03:13:15;1.52;;;0.95;;
74342;SDS011;62767;50.300;8.070;2024-03-02T03:15:41;2.25;;;1.05;;
74342;SDS011;62767;50.300;8.070;2024-03-02T03:18:06;1.80;;;1.00;;
74342;SDS011;62767;50.300;8.070;2024-03-02T03:20:35;2.17;;;1.25;;
74342;SDS011;62767;50.300;8.070;2024-03-02T03:23:01;1.77;;;1.05;;
74342;SDS011;62767;50.300;8.070;2024-03-02T03:25:27;1.50;;;1.05;;
74342;SDS011;62767;50.300;8.070;2024-03-02T03:27:52;1.85;;;1.10;;
74342;SDS011;62767;50.300;8.070;2024-03-02T03:30:18;1.60;;;1.00;;
74342;SDS011;62767;50.300;8.070;2024-03-02T03:32:44;1.02;;;0.80;;
74342;SDS011;62767;50.300;8.070;2024-03-02T03:35:09;1.35;;;0.98;;
74342;SDS011;62767;50.300;8.070;2024-03-02T03:37:35;0.90;;;0.73;;
74342;SDS011;62767;50.300;8.070;2024-03-02T03:40:01;1.77;;;1.00;;
74342;SDS011;62767;50.300;8.070;2024-03-02T03:42:28;1.42;;;1.05;;
74342;SDS011;62767;50.300;8.070;2024-03-02T03:44:53;1.77;;;1.00;;
74342;SDS011;62767;50.300;8.070;2024-03-02T03:47:19;0.95;;;0.80;;
74342;SDS011;62767;50.300;8.070;2024-03-02T03:49:45;1.42;;;0.90;;
74342;SDS011;62767;50.300;8.070;2024-03-02T03:52:11;2.42;;;1.08;;
74342;SDS011;62767;50.300;8.070;2024-03-02T03:54:36;1.70;;;0.95;;
74342;SDS011;62767;50.300;8.070;2024-03-02T03:59:29;2.00;;;0.90;;
74342;SDS011;62767;50.300;8.070;2024-03-02T04:01:54;1.17;;;1.02;;
74342;SDS011;62767;50.300;8.070;2024-03-02T04:04:20;1.63;;;0.90;;
74342;SDS011;62767;50.300;8.070;2024-03-02T04:06:45;1.85;;;1.00;;
74342;SDS011;62767;50.300;8.070;2024-03-02T04:09:10;1.85;;;1.00;;
74342;SDS011;62767;50.300;8.070;2024-03-02T04:11:36;2.17;;;1.00;;
74342;SDS011;62767;50.300;8.070;2024-03-02T04:14:01;1.38;;;0.80;;
74342;SDS011;62767;50.300;8.070;2024-03-02T04:16:27;1.60;;;0.88;;
74342;SDS011;62767;50.300;8.070;2024-03-02T04:18:54;1.77;;;1.00;;
74342;SDS011;62767;50.300;8.070;2024-03-02T04:21:19;1.40;;;1.00;;
74342;SDS011;62767;50.300;8.070;2024-03-02T04:23:45;1.52;;;1.00;;
74342;SDS011;62767;50.300;8.070;2024-03-02T04:26:10;1.35;;;0.85;;
74342;SDS011;62767;50.300;8.070;2024-03-02T04:28:36;1.48;;;0.77;;
74342;SDS011;62767;50.300;8.070;2024-03-02T04:31:01;1.33;;;0.73;;
74342;SDS011;62767;50.300;8.070;2024-03-02T04:33:27;1.33;;;0.90;;
74342;SDS011;62767;50.300;8.070;2024-03-02T04:35:52;1.42;;;0.90;;
74342;SDS011;62767;50.300;8.070;2024-03-02T04:38:18;1.60;;;1.10;;
74342;SDS011;62767;50.300;8.070;2024-03-02T04:40:43;1.13;;;0.90;;
74342;SDS011;62767;50.300;8.070;2024-03-02T04:43:09;1.48;;;1.00;;
74342;SDS011;62767;50.300;8.070;2024-03-02T04:45:37;1.92;;;0.98;;
74342;SDS011;62767;50.300;8.070;2024-03-02T04:48:03;2.05;;;1.10;;
74342;SDS011;62767;50.300;8.070;2024-03-02T04:50:29;0.82;;;0.80;;
74342;SDS011;62767;50.300;8.070;2024-03-02T04:52:54;1.52;;;0.90;;
74342;SDS011;62767;50.300;8.070;2024-03-02T04:55:20;1.08;;;0.90;;
74342;SDS011;62767;50.300;8.070;2024-03-02T04:57:54;2.65;;;1.00;;
74342;SDS011;62767;50.300;8.070;2024-03-02T05:00:20;1.00;;;0.80;;
74342;SDS011;62767;50.300;8.070;2024-03-02T05:02:46;1.27;;;0.90;;
74342;SDS011;62767;50.300;8.070;2024-03-02T05:05:11;1.55;;;1.00;;
74342;SDS011;62767;50.300;8.070;2024-03-02T05:07:37;1.60;;;1.00;;
74342;SDS011;62767;50.300;8.070;2024-03-02T05:10:02;1.98;;;1.20;;
74342;SDS011;62767;50.300;8.070;2024-03-02T05:12:28;1.13;;;0.90;;
74342;SDS011;62767;50.300;8.070;2024-03-02T05:15:21;1.65;;;1.00;;
74342;SDS011;62767;50.300;8.070;2024-03-02T05:17:47;1.98;;;1.05;;
74342;SDS011;62767;50.300;8.070;2024-03-02T05:20:12;1.95;;;1.08;;
74342;SDS011;62767;50.300;8.070;2024-03-02T05:22:38;2.40;;;1.20;;
74342;SDS011;62767;50.300;8.070;2024-03-02T05:25:05;1.98;;;1.10;;
74342;SDS011;62767;50.300;8.070;2024-03-02T05:27:31;2.03;;;1.17;;
74342;SDS011;62767;50.300;8.070;2024-03-02T05:29:58;1.70;;;1.13;;
74342;SDS011;62767;50.300;8.070;2024-03-02T05:32:26;1.52;;;1.10;;
74342;SDS011;62767;50.300;8.070;2024-03-02T05:34:51;1.85;;;1.10;;
74342;SDS011;62767;50.300;8.070;2024-03-02T05:37:17;1.95;;;1.17;;
74342;SDS011;62767;50.300;8.070;2024-03-02T05:39:42;2.00;;;1.20;;
74342;SDS011;62767;50.300;8.070;2024-03-02T05:42:08;1.58;;;0.90;;
74342;SDS011;62767;50.300;8.070;2024-03-02T05:44:35;1.27;;;1.00;;
74342;SDS011;62767;50.300;8.070;2024-03-02T05:47:01;1.52;;;1.00;;
74342;SDS011;62767;50.300;8.070;2024-03-02T05:49:26;1.67;;;1.02;;
74342;SDS011;62767;50.300;8.070;2024-03-02T05:51:52;2.00;;;1.10;;
74342;SDS011;62767;50.300;8.070;2024-03-02T05:54:17;1.90;;;0.95;;
74342;SDS011;62767;50.300;8.070;2024-03-02T05:56:43;2.70;;;1.20;;
74342;SDS011;62767;50.300;8.070;2024-03-02T05:59:09;1.85;;;1.08;;
74342;SDS011;62767;50.300;8.070;2024-03-02T06:01:47;1.88;;;1.30;;
74342;SDS011;62767;50.300;8.070;2024-03-02T06:04:13;1.90;;;1.10;;
74342;SDS011;62767;50.300;8.070;2024-03-02T06:06:42;2.08;;;1.23;;
74342;SDS011;62767;50.300;8.070;2024-03-02T06:09:08;2.05;;;1.20;;
74342;SDS011;62767;50.300;8.070;2024-03-02T06:11:37;2.22;;;1.20;;
74342;SDS011;62767;50.300;8.070;2024-03-02T06:14:04;1.58;;;1.05;;
74342;SDS011;62767;50.300;8.070;2024-03-02T06:18:56;2.22;;;1.23;;
74342;SDS011;62767;50.300;8.070;2024-03-02T06:21:26;1.98;;;1.00;;
74342;SDS011;62767;50.300;8.070;2024-03-02T06:23:52;2.20;;;0.93;;
74342;SDS011;62767;50.300;8.070;2024-03-02T06:26:17;2.92;;;1.23;;
74342;SDS011;62767;50.300;8.070;2024-03-02T06:28:43;1.98;;;1.20;;
74342;SDS011;62767;50.300;8.070;2024-03-02T06:31:09;2.00;;;1.10;;
74342;SDS011;62767;50.300;8.070;2024-03-02T06:33:35;1.95;;;1.20;;
74342;SDS011;62767;50.300;8.070;2024-03-02T06:36:00;1.73;;;1.10;;
74342;SDS011;62767;50.300;8.070;2024-03-02T06:38:26;2.35;;;1.08;;
74342;SDS011;62767;50.300;8.070;2024-03-02T06:40:52;2.38;;;1.30;;
74342;SDS011;62767;50.300;8.070;2024-03-02T06:43:17;1.70;;;1.10;;
74342;SDS011;62767;50.300;8.070;2024-03-02T06:45:43;2.30;;;1.20;;
74342;SDS011;62767;50.300;8.070;2024-03-02T06:48:08;2.28;;;1.30;;
74342;SDS011;62767;50.300;8.070;2024-03-02T06:50:34;2.30;;;1.30;;
74342;SDS011;62767;50.300;8.070;2024-03-02T06:52:59;1.40;;;0.98;;
74342;SDS011;62767;50.300;8.070;2024-03-02T06:55:25;4.05;;;1.27;;
74342;SDS011;62767;50.300;8.070;2024-03-02T06:57:51;1.55;;;0.90;;
74342;SDS011;62767;50.300;8.070;2024-03-02T07:00:17;1.90;;;1.13;;
74342;SDS011;62767;50.300;8.070;2024-03-02T07:02:46;2.22;;;1.00;;
74342;SDS011;62767;50.300;8.070;2024-03-02T07:05:12;2.33;;;1.25;;
74342;SDS011;62767;50.300;8.070;2024-03-02T07:07:37;1.92;;;1.20;;
74342;SDS011;62767;50.300;8.070;2024-03-02T07:10:03;2.05;;;1.30;;
74342;SDS011;62767;50.300;8.070;2024-03-02T07:12:30;2.15;;;1.17;;
74342;SDS011;62767;50.300;8.070;2024-03-02T07:14:56;2.15;;;1.20;;
74342;SDS011;62767;50.300;8.070;2024-03-02T07:17:42;2.42;;;1.23;;
74342;SDS011;62767;50.300;8.070;2024-03-02T07:20:07;1.40;;;1.10;;
74342;SDS011;62767;50.300;8.070;2024-03-02T07:22:33;1.95;;;1.17;;
74342;SDS011;62767;50.300;8.070;2024-03-02T07:24:59;2.33;;;1.42;;
74342;SDS011;62767;50.300;8.070;2024-03-02T07:27:24;2.00;;;1.20;;
74342;SDS011;62767;50.300;8.070;2024-03-02T07:29:50;2.15;;;1.13;;
74342;SDS011;62767;50.300;8.070;2024-03-02T07:32:15;2.33;;;1.20;;
74342;SDS011;62767;50.300;8.070;2024-03-02T07:34:41;2.30;;;1.25;;
74342;SDS011;62767;50.300;8.070;2024-03-02T07:37:06;1.95;;;1.02;;
74342;SDS011;62767;50.300;8.070;2024-03-02T07:39:31;1.77;;;1.20;;
74342;SDS011;62767;50.300;8.070;2024-03-02T07:41:57;2.22;;;1.20;;
74342;SDS011;62767;50.300;8.070;2024-03-02T07:44:23;2.75;;;1.23;;
74342;SDS011;62767;50.300;8.070;2024-03-02T07:46:48;1.90;;;1.15;;
74342;SDS011;62767;50.300;8.070;2024-03-02T07:49:17;2.42;;;1.35;;
74342;SDS011;62767;50.300;8.070;2024-03-02T07:51:43;1.65;;;1.10;;
74342;SDS011;62767;50.300;8.070;2024-03-02T07:54:09;1.58;;;1.13;;
74342;SDS011;62767;50.300;8.070;2024-03-02T07:56:34;1.77;;;1.10;;
74342;SDS011;62767;50.300;8.070;2024-03-02T07:59:01;1.90;;;0.98;;
74342;SDS011;62767;50.300;8.070;2024-03-02T08:01:30;1.95;;;1.20;;
74342;SDS011;62767;50.300;8.070;2024-03-02T08:03:57;1.65;;;1.02;;
74342;SDS011;62767;50.300;8.070;2024-03-02T08:06:26;2.45;;;1.17;;
74342;SDS011;62767;50.300;8.070;2024-03-02T08:08:58;2.42;;;1.08;;
74342;SDS011;62767;50.300;8.070;2024-03-02T08:11:25;3.13;;;1.30;;
74342;SDS011;62767;50.300;8.070;2024-03-02T08:13:52;1.70;;;1.23;;
74342;SDS011;62767;50.300;8.070;2024-03-02T08:16:20;1.60;;;1.10;;
74342;SDS011;62767;50.300;8.070;2024-03-02T08:18:48;1.75;;;1.02;;
74342;SDS011;62767;50.300;8.070;2024-03-02T08:21:14;1.85;;;1.20;;
74342;SDS011;62767;50.300;8.070;2024-03-02T08:23:39;1.42;;;1.00;;
74342;SDS011;62767;50.300;8.070;2024-03-02T08:26:07;1.65;;;1.00;;
74342;SDS011;62767;50.300;8.070;2024-03-02T08:28:33;2.15;;;1.20;;
74342;SDS011;62767;50.300;8.070;2024-03-02T08:30:59;1.75;;;1.00;;
74342;SDS011;62767;50.300;8.070;2024-03-02T08:33:24;1.58;;;1.00;;
74342;SDS011;62767;50.300;8.070;2024-03-02T08:35:50;1.90;;;1.08;;
74342;SDS011;62767;50.300;8.070;2024-03-02T08:38:16;3.20;;;1.20;;
74342;SDS011;62767;50.300;8.070;2024-03-02T08:40:41;2.35;;;1.30;;
74342;SDS011;62767;50.300;8.070;2024-03-02T08:43:07;1.75;;;1.00;;
74342;SDS011;62767;50.300;8.070;2024-03-02T08:45:32;1.65;;;1.08;;
74342;SDS011;62767;50.300;8.070;2024-03-02T08:47:59;1.90;;;1.00;;
74342;SDS011;62767;50.300;8.070;2024-03-02T08:50:25;2.17;;;0.95;;
74342;SDS011;62767;50.300;8.070;2024-03-02T08:52:51;2.03;;;1.02;;
74342;SDS011;62767;50.300;8.070;2024-03-02T08:55:16;2.20;;;1.13;;
74342;SDS011;62767;50.300;8.070;2024-03-02T08:57:42;1.60;;;0.98;;
74342;SDS011;62767;50.300;8.070;2024-03-02T09:00:07;1.50;;;0.90;;
74342;SDS011;62767;50.300;8.070;2024-03-02T09:02:34;1.75;;;1.15;;
74342;SDS011;62767;50.300;8.070;2024-03-02T09:04:59;1.45;;;0.90;;
74342;SDS011;62767;50.300;8.070;2024-03-02T09:07:25;1.67;;;1.05;;
74342;SDS011;62767;50.300;8.070;2024-03-02T09:09:50;0.93;;;0.82;;
74342;SDS011;62767;50.300;8.070;2024-03-02T09:14:44;1.35;;;0.85;;
74342;SDS011;62767;50.300;8.070;2024-03-02T09:17:10;1.92;;;1.10;;
74342;SDS011;62767;50.300;8.070;2024-03-02T09:19:37;2.03;;;1.00;;
74342;SDS011;62767;50.300;8.070;2024-03-02T09:22:03;1.58;;;1.00;;
74342;SDS011;62767;50.300;8.070;2024-03-02T09:24:30;1.70;;;1.00;;
74342;SDS011;62767;50.300;8.070;2024-03-02T09:26:59;1.65;;;0.90;;
74342;SDS011;62767;50.300;8.070;2024-03-02T09:29:25;1.92;;;0.93;;
74342;SDS011;62767;50.300;8.070;2024-03-02T09:31:50;2.28;;;1.35;;
74342;SDS011;62767;50.300;8.070;2024-03-02T09:34:16;1.65;;;0.85;;
74342;SDS011;62767;50.300;8.070;2024-03-02T09:36:42;1.67;;;1.10;;
74342;SDS011;62767;50.300;8.070;2024-03-02T09:39:08;1.40;;;0.93;;
74342;SDS011;62767;50.300;8.070;2024-03-02T09:41:37;1.55;;;1.10;;
74342;SDS011;62767;50.300;8.070;2024-03-02T09:44:03;1.15;;;0.80;;
74342;SDS011;62767;50.300;8.070;2024-03-02T09:46:29;1.30;;;0.90;;
74342;SDS011;62767;50.300;8.070;2024-03-02T09:48:55;1.17;;;0.73;;
74342;SDS011;62767;50.300;8.070;2024-03-02T09:51:21;2.00;;;1.20;;
74342;SDS011;62767;50.300;8.070;2024-03-02T09:53:46;1.55;;;1.05;;
74342;SDS011;62767;50.300;8.070;2024-03-02T09:56:12;1.48;;;0.95;;
74342;SDS011;62767;50.300;8.070;2024-03-02T09:58:38;2.08;;;1.00;;
74342;SDS011;62767;50.300;8.070;2024-03-02T10:01:07;1.17;;;0.90;;
74342;SDS011;62767;50.300;8.070;2024-03-02T10:03:33;1.60;;;0.93;;
74342;SDS011;62767;50.300;8.070;2024-03-02T10:08:47;1.17;;;0.80;;
74342;SDS011;62767;50.300;8.070;2024-03-02T10:11:29;1.95;;;1.02;;
74342;SDS011;62767;50.300;8.070;2024-03-02T10:16:38;0.80;;;0.75;;
74342;SDS011;62767;50.300;8.070;2024-03-02T10:21:47;1.55;;;0.90;;
74342;SDS011;62767;50.300;8.070;2024-03-02T10:24:14;4.70;;;1.45;;
74342;SDS011;62767;50.300;8.070;2024-03-02T10:26:40;2.83;;;1.77;;
74342;SDS011;62767;50.300;8.070;2024-03-02T10:29:10;2.83;;;1.60;;
74342;SDS011;62767;50.300;8.070;2024-03-02T10:31:40;7.65;;;1.50;;
74342;SDS011;62767;50.300;8.070;2024-03-02T10:34:07;5.60;;;1.70;;
74342;SDS011;62767;50.300;8.070;2024-03-02T10:36:34;3.05;;;1.70;;
74342;SDS011;62767;50.300;8.070;2024-03-02T10:39:04;3.53;;;1.60;;
74342;SDS011;62767;50.300;8.070;2024-03-02T10:41:37;3.00;;;1.67;;
74342;SDS011;62767;50.300;8.070;2024-03-02T10:44:04;3.85;;;1.42;;
74342;SDS011;62767;50.300;8.070;2024-03-02T10:46:32;3.58;;;1.50;;
74342;SDS011;62767;50.300;8.070;2024-03-02T10:48:59;3.65;;;1.27;;
74342;SDS011;62767;50.300;8.070;2024-03-02T10:51:26;10.80;;;1.77;;
74342;SDS011;62767;50.300;8.070;2024-03-02T10:53:54;2.95;;;1.20;;
74342;SDS011;62767;50.300;8.070;2024-03-02T10:56:21;3.70;;;1.80;;
74342;SDS011;62767;50.300;8.070;2024-03-02T10:58:55;3.55;;;1.30;;
74342;SDS011;62767;50.300;8.070;2024-03-02T11:01:27;3.33;;;1.65;;
74342;SDS011;62767;50.300;8.070;2024-03-02T11:03:55;2.90;;;1.40;;
74342;SDS011;62767;50.300;8.070;2024-03-02T11:06:21;18.45;;;1.70;;
74342;SDS011;62767;50.300;8.070;2024-03-02T11:08:49;2.58;;;1.35;;
74342;SDS011;62767;50.300;8.070;2024-03-02T11:11:18;5.18;;;1.42;;
74342;SDS011;62767;50.300;8.070;2024-03-02T11:13:53;2.90;;;1.52;;
74342;SDS011;62767;50.300;8.070;2024-03-02T11:16:43;2.60;;;1.23;;
74342;SDS011;62767;50.300;8.070;2024-03-02T11:19:10;2.30;;;1.25;;
74342;SDS011;62767;50.300;8.070;2024-03-02T11:21:37;2.72;;;1.30;;
74342;SDS011;62767;50.300;8.070;2024-03-02T11:26:47;2.08;;;1.20;;
74342;SDS011;62767;50.300;8.070;2024-03-02T11:32:16;1.70;;;1.00;;
74342;SDS011;62767;50.300;8.070;2024-03-02T11:34:46;2.70;;;1.27;;
74342;SDS011;62767;50.300;8.070;2024-03-02T11:37:15;2.47;;;1.38;;
74342;SDS011;62767;50.300;8.070;2024-03-02T11:39:42;1.52;;;1.00;;
74342;SDS011;62767;50.300;8.070;2024-03-02T11:42:09;2.15;;;1.30;;
74342;SDS011;62767;50.300;8.070;2024-03-02T11:44:36;2.30;;;1.08;;
74342;SDS011;62767;50.300;8.070;2024-03-02T11:47:06;1.77;;;1.00;;
74342;SDS011;62767;50.300;8.070;2024-03-02T11:52:05;2.58;;;1.15;;
74342;SDS011;62767;50.300;8.070;2024-03-02T11:54:32;1.65;;;0.93;;
74342;SDS011;62767;50.300;8.070;2024-03-02T11:57:04;3.40;;;1.15;;
74342;SDS011;62767;50.300;8.070;2024-03-02T11:59:31;2.05;;;1.10;;
74342;SDS011;62767;50.300;8.070;2024-03-02T12:01:57;3.40;;;1.25;;
74342;SDS011;62767;50.300;8.070;2024-03-02T12:06:55;1.80;;;1.05;;
74342;SDS011;62767;50.300;8.070;2024-03-02T12:09:25;2.10;;;1.10;;
74342;SDS011;62767;50.300;8.070;2024-03-02T12:14:32;5.15;;;1.50;;
74342;SDS011;62767;50.300;8.070;2024-03-02T12:19:24;6.22;;;1.75;;
74342;SDS011;62767;50.300;8.070;2024-03-02T12:21:51;6.32;;;1.48;;
74342;SDS011;62767;50.300;8.070;2024-03-02T12:24:18;5.72;;;1.50;;
74342;SDS011;62767;50.300;8.070;2024-03-02T12:26:43;1.92;;;1.13;;
74342;SDS011;62767;50.300;8.070;2024-03-02T12:29:10;2.50;;;1.17;;
74342;SDS011;62767;50.300;8.070;2024-03-02T12:31:35;2.92;;;1.40;;
74342;SDS011;62767;50.300;8.070;2024-03-02T12:34:02;2.60;;;1.30;;
74342;SDS011;62767;50.300;8.070;2024-03-02T12:36:29;3.30;;;1.20;;
74342;SDS011;62767;50.300;8.070;2024-03-02T12:38:54;3.53;;;1.20;;
74342;SDS011;62767;50.300;8.070;2024-03-02T12:41:20;2.40;;;1.08;;
74342;SDS011;62767;50.300;8.070;2024-03-02T12:43:46;3.00;;;1.00;;
74342;SDS011;62767;50.300;8.070;2024-03-02T12:46:12;2.90;;;1.10;;
74342;SDS011;62767;50.300;8.070;2024-03-02T12:48:37;2.83;;;1.20;;
74342;SDS011;62767;50.300;8.070;2024-03-02T12:51:06;3.60;;;1.50;;
74342;SDS011;62767;50.300;8.070;2024-03-02T12:53:31;2.95;;;1.15;;
74342;SDS011;62767;50.300;8.070;2024-03-02T12:55:57;1.88;;;1.10;;
74342;SDS011;62767;50.300;8.070;2024-03-02T12:58:23;3.97;;;1.30;;
74342;SDS011;62767;50.300;8.070;2024-03-02T13:00:49;2.33;;;0.98;;
74342;SDS011;62767;50.300;8.070;2024-03-02T13:03:14;1.45;;;0.70;;
74342;SDS011;62767;50.300;8.070;2024-03-02T13:05:47;4.30;;;1.10;;
74342;SDS011;62767;50.300;8.070;2024-03-02T13:08:15;1.42;;;0.70;;
74342;SDS011;62767;50.300;8.070;2024-03-02T13:10:40;1.55;;;0.88;;
74342;SDS011;62767;50.300;8.070;2024-03-02T13:13:06;2.35;;;0.85;;
74342;SDS011;62767;50.300;8.070;2024-03-02T13:15:32;1.60;;;0.88;;
74342;SDS011;62767;50.300;8.070;2024-03-02T13:17:58;1.35;;;0.80;;
74342;SDS011;62767;50.300;8.070;2024-03-02T13:20:29;1.77;;;0.80;;
74342;SDS011;62767;50.300;8.070;2024-03-02T13:22:57;2.13;;;1.00;;
74342;SDS011;62767;50.300;8.070;2024-03-02T13:25:22;1.33;;;0.80;;
74342;SDS011;62767;50.300;8.070;2024-03-02T13:27:48;1.20;;;0.65;;
74342;SDS011;62767;50.300;8.070;2024-03-02T13:30:13;0.73;;;0.60;;
74342;SDS011;62767;50.300;8.070;2024-03-02T13:32:39;2.50;;;0.93;;
74342;SDS011;62767;50.300;8.070;2024-03-02T13:35:04;2.05;;;0.82;;
74342;SDS011;62767;50.300;8.070;2024-03-02T13:37:30;2.30;;;0.80;;
74342;SDS011;62767;50.300;8.070;2024-03-02T13:39:55;1.08;;;0.60;;
74342;SDS011;62767;50.300;8.070;2024-03-02T13:42:21;2.97;;;0.70;;
74342;SDS011;62767;50.300;8.070;2024-03-02T13:44:47;1.55;;;0.80;;
74342;SDS011;62767;50.300;8.070;2024-03-02T13:47:14;1.42;;;0.80;;
74342;SDS011;62767;50.300;8.070;2024-03-02T13:49:40;1.42;;;0.90;;
74342;SDS011;62767;50.300;8.070;2024-03-02T13:52:09;2.92;;;0.85;;
74342;SDS011;62767;50.300;8.070;2024-03-02T13:54:45;1.00;;;0.50;;
74342;SDS011;62767;50.300;8.070;2024-03-02T13:57:11;1.02;;;0.60;;
74342;SDS011;62767;50.300;8.070;2024-03-02T13:59:38;1.40;;;0.82;;
74342;SDS011;62767;50.300;8.070;2024-03-02T14:02:04;1.30;;;0.80;;
74342;SDS011;62767;50.300;8.070;2024-03-02T14:04:34;3.05;;;0.75;;
74342;SDS011;62767;50.300;8.070;2024-03-02T14:07:00;1.73;;;0.80;;
74342;SDS011;62767;50.300;8.070;2024-03-02T14:09:26;1.75;;;0.68;;
74342;SDS011;62767;50.300;8.070;2024-03-02T14:11:52;2.78;;;0.75;;
74342;SDS011;62767;50.300;8.070;2024-03-02T14:14:18;0.80;;;0.47;;
74342;SDS011;62767;50.300;8.070;2024-03-02T14:16:44;2.30;;;0.47;;
74342;SDS011;62767;50.300;8.070;2024-03-02T14:19:10;1.90;;;0.70;;
74342;SDS011;62767;50.300;8.070;2024-03-02T14:21:37;0.73;;;0.57;;
74342;SDS011;62767;50.300;8.070;2024-03-02T14:24:04;0.82;;;0.60;;
74342;SDS011;62767;50.300;8.070;2024-03-02T14:26:29;2.22;;;0.60;;
74342;SDS011;62767;50.300;8.070;2024-03-02T14:28:55;1.30;;;0.70;;
74342;SDS011;62767;50.300;8.070;2024-03-02T14:31:21;0.63;;;0.60;;
74342;SDS011;62767;50.300;8.070;2024-03-02T14:33:46;3.40;;;0.80;;
74342;SDS011;62767;50.300;8.070;2024-03-02T14:36:12;1.27;;;0.80;;
74342;SDS011;62767;50.300;8.070;2024-03-02T14:38:38;0.68;;;0.60;;
74342;SDS011;62767;50.300;8.070;2024-03-02T14:41:04;2.10;;;0.80;;
74342;SDS011;62767;50.300;8.070;2024-03-02T14:43:30;3.17;;;0.70;;
74342;SDS011;62767;50.300;8.070;2024-03-02T14:45:55;1.17;;;0.60;;
74342;SDS011;62767;50.300;8.070;2024-03-02T14:48:21;0.73;;;0.50;;
74342;SDS011;62767;50.300;8.070;2024-03-02T14:50:47;3.30;;;0.80;;
74342;SDS011;62767;50.300;8.070;2024-03-02T14:53:13;1.20;;;0.50;;
74342;SDS011;62767;50.300;8.070;2024-03-02T14:55:39;2.05;;;0.70;;
74342;SDS011;62767;50.300;8.070;2024-03-02T14:58:05;0.85;;;0.52;;
74342;SDS011;62767;50.300;8.070;2024-03-02T15:00:30;1.15;;;0.63;;
74342;SDS011;62767;50.300;8.070;2024-03-02T15:02:56;2.72;;;0.60;;
74342;SDS011;62767;50.300;8.070;2024-03-02T15:05:21;1.95;;;0.60;;
74342;SDS011;62767;50.300;8.070;2024-03-02T15:07:47;0.70;;;0.52;;
74342;SDS011;62767;50.300;8.070;2024-03-02T15:10:13;0.50;;;0.50;;
74342;SDS011;62767;50.300;8.070;2024-03-02T15:12:38;1.40;;;0.52;;
74342;SDS011;62767;50.300;8.070;2024-03-02T15:15:04;0.90;;;0.60;;
74342;SDS011;62767;50.300;8.070;2024-03-02T15:17:29;4.00;;;0.80;;
74342;SDS011;62767;50.300;8.070;2024-03-02T15:19:55;2.10;;;0.85;;